createdAt,value
2018-04-09T00:00:04.085Z,4.73
2018-04-09T00:02:33.565Z,5.07
2018-04-09T00:05:01.078Z,5.90
2018-04-09T00:07:29.388Z,5.10
2018-04-09T00:09:56.904Z,5.37
2018-04-09T00:12:25.184Z,5.50
2018-04-09T00:14:53.455Z,4.83
2018-04-09T00:17:21.754Z,4.97
2018-04-09T00:19:50.222Z,5.60
2018-04-09T00:22:18.490Z,4.93
2018-04-09T00:24:46.790Z,5.77
2018-04-09T00:27:14.285Z,5.50
2018-04-09T00:29:41.809Z,5.17
2018-04-09T00:32:09.305Z,5.00
2018-04-09T00:34:38.769Z,4.87
2018-04-09T00:37:06.260Z,4.80
2018-04-09T00:39:33.785Z,5.97
2018-04-09T00:42:01.278Z,4.83
2018-04-09T00:44:28.825Z,5.40
2018-04-09T00:46:56.337Z,5.13
2018-04-09T00:49:23.841Z,4.40
2018-04-09T00:51:51.366Z,5.80
2018-04-09T00:54:19.823Z,5.23
2018-04-09T00:56:48.118Z,5.77
2018-04-09T00:59:15.616Z,5.83
2018-04-09T01:01:43.161Z,5.20
2018-04-09T01:04:10.661Z,4.60
2018-04-09T01:06:38.957Z,4.17
2018-04-09T01:09:06.465Z,5.40
2018-04-09T01:11:33.986Z,4.50
2018-04-09T01:14:01.512Z,5.97
2018-04-09T01:16:29.777Z,5.90
2018-04-09T01:18:58.070Z,4.83
2018-04-09T01:21:26.342Z,4.70
2018-04-09T01:23:54.620Z,6.03
2018-04-09T01:26:22.120Z,6.77
2018-04-09T01:28:49.618Z,5.43
2018-04-09T01:31:17.916Z,6.00
2018-04-09T01:33:45.429Z,6.70
2018-04-09T01:36:12.964Z,5.43
2018-04-09T01:38:40.463Z,5.00
2018-04-09T01:41:08.751Z,6.00
2018-04-09T01:43:37.011Z,5.20
2018-04-09T01:46:04.536Z,6.00
2018-04-09T01:48:32.024Z,5.70
2018-04-09T01:50:59.524Z,5.10
2018-04-09T01:53:27.048Z,5.80
2018-04-09T01:55:56.254Z,5.97
2018-04-09T01:58:24.542Z,5.60
2018-04-09T02:00:52.045Z,5.43
2018-04-09T02:03:21.537Z,5.63
2018-04-09T02:05:49.045Z,5.67
2018-04-09T02:08:17.333Z,4.80
2018-04-09T02:10:44.847Z,6.00
2018-04-09T02:13:12.360Z,6.10
2018-04-09T02:15:39.900Z,5.57
2018-04-09T02:18:07.393Z,7.03
2018-04-09T02:20:34.911Z,7.07
2018-04-09T02:23:02.407Z,7.37
2018-04-09T02:25:29.932Z,7.17
2018-04-09T02:27:57.424Z,6.40
2018-04-09T02:30:24.921Z,5.90
2018-04-09T02:32:53.245Z,5.23
2018-04-09T02:35:20.755Z,7.07
2018-04-09T02:37:49.050Z,5.63
2018-04-09T02:40:16.557Z,6.13
2018-04-09T02:42:44.081Z,6.30
2018-04-09T02:45:11.578Z,6.57
2018-04-09T02:47:39.125Z,6.10
2018-04-09T02:50:06.632Z,6.30
2018-04-09T02:52:34.897Z,7.00
2018-04-09T02:55:03.182Z,7.37
2018-04-09T02:57:31.469Z,6.50
2018-04-09T02:59:58.992Z,6.87
2018-04-09T03:02:26.489Z,6.37
2018-04-09T03:04:54.018Z,7.20
2018-04-09T03:07:22.297Z,6.80
2018-04-09T03:09:50.570Z,6.30
2018-04-09T03:12:18.852Z,7.47
2018-04-09T03:14:46.353Z,7.30
2018-04-09T03:17:13.890Z,6.67
2018-04-09T03:19:41.389Z,6.20
2018-04-09T03:22:08.921Z,6.07
2018-04-09T03:24:36.417Z,6.90
2018-04-09T03:27:04.686Z,6.80
2018-04-09T03:29:32.973Z,6.50
2018-04-09T03:32:01.242Z,6.40
2018-04-09T03:34:28.769Z,5.80
2018-04-09T03:36:56.267Z,6.30
2018-04-09T03:39:24.560Z,6.50
2018-04-09T03:41:52.067Z,5.50
2018-04-09T03:44:19.560Z,6.53
2018-04-09T03:46:48.802Z,6.10
2018-04-09T03:49:16.316Z,5.50
2018-04-09T03:51:44.597Z,5.80
2018-04-09T03:54:12.861Z,6.03
2018-04-09T03:56:41.149Z,5.90
2018-04-09T03:59:09.584Z,6.40
2018-04-09T04:01:38.597Z,6.80
2018-04-09T04:04:06.116Z,5.80
2018-04-09T04:06:33.645Z,6.37
2018-04-09T04:09:01.925Z,5.97
2018-04-09T04:11:29.424Z,6.00
2018-04-09T04:13:56.945Z,6.23
2018-04-09T04:16:36.273Z,5.93
2018-04-09T04:19:15.764Z,5.67
2018-04-09T04:21:46.788Z,6.50
2018-04-09T04:24:14.295Z,6.00
2018-04-09T04:26:41.817Z,6.37
2018-04-09T04:29:09.314Z,5.60
2018-04-09T04:31:36.843Z,5.90
2018-04-09T04:34:04.337Z,5.50
2018-04-09T04:36:31.848Z,5.60
2018-04-09T04:38:59.360Z,6.33
2018-04-09T04:41:27.816Z,5.40
2018-04-09T04:43:55.332Z,5.70
2018-04-09T04:46:22.832Z,6.20
2018-04-09T04:48:50.353Z,5.67
2018-04-09T04:51:19.357Z,5.73
2018-04-09T04:53:47.653Z,6.30
2018-04-09T04:56:15.152Z,5.70
2018-04-09T04:58:42.667Z,6.70
2018-04-09T05:01:12.178Z,6.97
2018-04-09T05:03:39.697Z,6.23
2018-04-09T05:06:08.722Z,6.00
2018-04-09T05:08:36.216Z,6.20
2018-04-09T05:11:03.736Z,6.30
2018-04-09T05:13:32.211Z,5.87
2018-04-09T05:15:59.723Z,6.13
2018-04-09T05:18:27.248Z,6.37
2018-04-09T05:20:54.749Z,6.70
2018-04-09T05:23:25.025Z,6.40
2018-04-09T05:25:52.533Z,7.00
2018-04-09T05:28:20.061Z,5.50
2018-04-09T05:30:47.556Z,6.80
2018-04-09T05:33:15.065Z,6.90
2018-04-09T05:35:42.585Z,5.90
2018-04-09T05:38:10.841Z,6.30
2018-04-09T05:40:38.364Z,6.73
2018-04-09T05:43:06.816Z,6.80
2018-04-09T05:45:34.341Z,6.47
2018-04-09T05:48:02.758Z,5.77
2018-04-09T05:50:30.557Z,5.77
2018-04-09T05:52:58.293Z,5.03
2018-04-09T05:55:26.052Z,6.20
2018-04-09T05:57:54.623Z,4.77
2018-04-09T06:00:22.496Z,5.10
2018-04-09T06:02:50.282Z,5.20
2018-04-09T06:05:18.128Z,4.50
2018-04-09T06:07:47.579Z,5.03
2018-04-09T06:10:17.239Z,5.27
2018-04-09T06:12:45.033Z,6.17
2018-04-09T06:15:13.782Z,5.00
2018-04-09T06:17:41.749Z,4.97
2018-04-09T06:20:09.616Z,4.80
2018-04-09T06:22:38.504Z,5.77
2018-04-09T06:25:07.451Z,5.37
2018-04-09T06:27:35.259Z,5.20
2018-04-09T06:30:03.157Z,5.40
2018-04-09T06:32:30.923Z,11.80
2018-04-09T06:34:58.859Z,10.80
2018-04-09T06:37:27.198Z,29.70
2018-04-09T06:39:55.477Z,20.60
2018-04-09T06:42:23.772Z,18.30
2018-04-09T06:44:51.272Z,17.03
2018-04-09T06:47:18.800Z,19.77
2018-04-09T06:49:46.316Z,19.77
2018-04-09T06:52:14.593Z,19.40
2018-04-09T06:54:42.892Z,19.97
2018-04-09T06:57:10.392Z,20.33
2018-04-09T06:59:37.917Z,17.30
2018-04-09T07:02:05.453Z,17.57
2018-04-09T07:04:33.726Z,16.47
2018-04-09T07:07:02.108Z,18.07
2018-04-09T07:09:29.619Z,15.83
2018-04-09T07:11:57.141Z,15.90
2018-04-09T07:14:24.646Z,14.63
2018-04-09T07:16:53.105Z,16.00
2018-04-09T07:19:20.635Z,14.77
2018-04-09T07:21:48.161Z,16.67
2018-04-09T07:24:17.373Z,15.37
2018-04-09T07:26:44.901Z,13.40
2018-04-09T07:29:12.403Z,12.90
2018-04-09T07:31:39.905Z,13.40
2018-04-09T07:34:08.216Z,15.10
2018-04-09T07:36:35.736Z,12.97
2018-04-09T07:39:03.264Z,12.47
2018-04-09T07:41:30.769Z,12.50
2018-04-09T07:43:58.290Z,13.10
2018-04-09T07:46:25.790Z,11.67
2018-04-09T07:48:54.093Z,13.50
2018-04-09T07:51:21.616Z,11.73
2018-04-09T07:53:49.901Z,11.03
2018-04-09T07:56:20.141Z,10.97
2018-04-09T07:58:47.661Z,11.90
2018-04-09T08:01:16.693Z,9.50
2018-04-09T08:03:45.186Z,10.80
2018-04-09T08:06:12.719Z,10.17
2018-04-09T08:08:40.234Z,9.90
2018-04-09T08:11:07.768Z,11.13
2018-04-09T08:13:36.249Z,10.07
2018-04-09T08:16:03.761Z,10.70
2018-04-09T08:18:32.046Z,9.93
2018-04-09T08:21:00.308Z,9.13
2018-04-09T08:23:28.609Z,9.33
2018-04-09T08:25:56.121Z,9.13
2018-04-09T08:28:25.195Z,8.80
2018-04-09T08:30:52.691Z,9.50
2018-04-09T08:33:21.006Z,8.50
2018-04-09T08:35:48.512Z,10.20
2018-04-09T08:38:16.010Z,9.20
2018-04-09T08:40:45.537Z,9.10
2018-04-09T08:43:13.043Z,8.30
2018-04-09T08:45:41.342Z,9.17
2018-04-09T08:48:09.779Z,9.50
2018-04-09T08:50:37.317Z,9.30
2018-04-09T08:53:04.819Z,7.83
2018-04-09T08:55:35.089Z,8.63
2018-04-09T08:58:02.597Z,7.37
2018-04-09T09:00:30.906Z,8.60
2018-04-09T09:02:58.437Z,7.03
2018-04-09T09:05:25.962Z,7.50
2018-04-09T09:07:55.225Z,7.70
2018-04-09T09:10:22.735Z,8.47
2018-04-09T09:12:51.025Z,7.30
2018-04-09T09:15:20.241Z,7.43
2018-04-09T09:17:47.764Z,7.13
2018-04-09T09:20:16.049Z,7.70
2018-04-09T09:22:44.319Z,7.47
2018-04-09T09:25:11.867Z,8.27
2018-04-09T09:27:40.125Z,7.60
2018-04-09T09:30:08.421Z,10.70
2018-04-09T09:32:36.689Z,7.00
2018-04-09T09:35:04.214Z,7.43
2018-04-09T09:37:31.786Z,7.23
2018-04-09T09:39:59.269Z,7.37
2018-04-09T09:42:26.794Z,6.10
2018-04-09T09:44:54.293Z,6.83
2018-04-09T09:47:22.592Z,7.00
2018-04-09T09:49:50.100Z,6.60
2018-04-09T09:52:17.631Z,6.97
2018-04-09T09:54:45.160Z,7.27
2018-04-09T09:57:12.689Z,6.63
2018-04-09T09:59:41.920Z,6.27
2018-04-09T10:02:10.330Z,6.50
2018-04-09T10:04:38.794Z,5.70
2018-04-09T10:07:06.305Z,7.07
2018-04-09T10:09:34.592Z,5.80
2018-04-09T10:12:03.087Z,6.47
2018-04-09T10:14:30.620Z,7.23
2018-04-09T10:16:58.884Z,6.40
2018-04-09T10:19:27.207Z,6.87
2018-04-09T10:21:54.738Z,6.17
2018-04-09T10:24:22.270Z,6.37
2018-04-09T10:26:50.547Z,7.40
2018-04-09T10:29:18.813Z,5.53
2018-04-09T10:31:46.341Z,6.60
2018-04-09T10:34:14.801Z,7.87
2018-04-09T10:36:42.339Z,7.10
2018-04-09T10:39:09.853Z,6.00
2018-04-09T10:41:37.383Z,5.90
2018-04-09T10:44:04.893Z,5.97
2018-04-09T10:46:34.170Z,5.47
2018-04-09T10:49:02.436Z,5.93
2018-04-09T10:51:29.945Z,5.57
2018-04-09T10:53:57.469Z,5.90
2018-04-09T10:56:24.968Z,6.10
2018-04-09T10:58:52.497Z,5.30
2018-04-09T11:01:20.805Z,5.53
2018-04-09T11:03:48.337Z,5.63
2018-04-09T11:06:16.630Z,6.60
2018-04-09T11:08:44.164Z,5.83
2018-04-09T11:11:13.394Z,6.20
2018-04-09T11:13:40.920Z,5.90
2018-04-09T11:16:09.205Z,6.03
2018-04-09T11:18:37.484Z,6.10
2018-04-09T11:21:05.004Z,5.73
2018-04-09T11:23:32.515Z,5.70
2018-04-09T11:26:00.051Z,5.87
2018-04-09T11:28:28.328Z,5.00
2018-04-09T11:30:56.609Z,6.10
2018-04-09T11:33:24.120Z,5.97
2018-04-09T11:35:51.615Z,5.40
2018-04-09T11:38:19.906Z,5.10
2018-04-09T11:40:47.415Z,5.53
2018-04-09T11:43:14.932Z,5.77
2018-04-09T11:45:42.433Z,4.70
2018-04-09T11:48:11.474Z,5.33
2018-04-09T11:50:39.931Z,4.90
2018-04-09T11:53:08.227Z,5.20
2018-04-09T11:55:35.731Z,6.50
2018-04-09T11:58:04.179Z,4.87
2018-04-09T12:00:31.739Z,4.83
2018-04-09T12:02:59.247Z,5.20
2018-04-09T12:05:26.759Z,5.00
2018-04-09T12:07:54.274Z,4.63
2018-04-09T12:10:21.826Z,5.00
2018-04-09T12:12:50.101Z,5.70
2018-04-09T12:15:18.371Z,4.83
2018-04-09T12:17:46.788Z,5.23
2018-04-09T12:20:14.284Z,4.90
2018-04-09T12:22:41.815Z,5.00
2018-04-09T12:25:09.314Z,5.63
2018-04-09T12:27:38.795Z,4.20
2018-04-09T12:30:06.315Z,5.30
2018-04-09T12:32:33.838Z,4.53
2018-04-09T12:35:03.060Z,4.17
2018-04-09T12:37:30.562Z,4.77
2018-04-09T12:39:58.097Z,5.10
2018-04-09T12:42:25.617Z,5.20
2018-04-09T12:44:53.916Z,5.10
2018-04-09T12:47:21.462Z,4.83
2018-04-09T12:49:48.946Z,4.37
2018-04-09T12:52:16.451Z,5.70
2018-04-09T12:54:46.727Z,5.33
2018-04-09T12:57:14.235Z,4.57
2018-04-09T12:59:42.494Z,3.83
2018-04-09T13:02:11.764Z,4.70
2018-04-09T13:04:39.312Z,4.93
2018-04-09T13:07:06.837Z,4.47
2018-04-09T13:09:34.327Z,4.60
2018-04-09T13:12:01.859Z,4.30
2018-04-09T13:14:29.372Z,4.97
2018-04-09T13:16:58.587Z,4.73
2018-04-09T13:19:26.884Z,4.40
2018-04-09T13:21:54.376Z,4.10
2018-04-09T13:24:23.854Z,5.13
2018-04-09T13:26:51.346Z,4.10
2018-04-09T13:29:18.868Z,4.20
2018-04-09T13:31:46.358Z,4.37
2018-04-09T13:34:13.885Z,3.90
2018-04-09T13:36:41.378Z,3.60
2018-04-09T13:39:08.881Z,4.17
2018-04-09T13:41:36.406Z,4.40
2018-04-09T13:44:04.674Z,4.30
2018-04-09T13:46:32.194Z,4.10
2018-04-09T13:49:00.635Z,4.50
2018-04-09T13:51:28.928Z,5.00
2018-04-09T13:53:56.436Z,3.70
2018-04-09T13:56:23.951Z,4.30
2018-04-09T13:58:51.451Z,3.70
2018-04-09T14:01:18.954Z,3.93
2018-04-09T14:03:48.417Z,4.10
2018-04-09T14:06:15.921Z,4.60
2018-04-09T14:08:43.454Z,4.20
2018-04-09T14:11:11.712Z,4.50
2018-04-09T14:13:39.249Z,3.97
2018-04-09T14:16:07.078Z,3.90
2018-04-09T14:18:36.547Z,3.87
2018-04-09T14:21:04.819Z,4.20
2018-04-09T14:23:32.323Z,3.67
2018-04-09T14:25:59.830Z,4.20
2018-04-09T14:28:27.318Z,4.00
2018-04-09T14:30:54.837Z,4.40
2018-04-09T14:33:22.335Z,4.87
2018-04-09T14:35:49.848Z,3.63
2018-04-09T14:38:17.353Z,3.60
2018-04-09T14:40:44.874Z,3.93
2018-04-09T14:43:13.381Z,3.50
2018-04-09T14:45:40.884Z,4.20
2018-04-09T14:48:08.410Z,3.80
2018-04-09T14:50:35.910Z,4.27
2018-04-09T14:53:03.427Z,3.77
2018-04-09T14:55:30.930Z,3.70
2018-04-09T14:57:59.217Z,3.90
2018-04-09T15:00:27.499Z,4.10
2018-04-09T15:02:55.791Z,4.93
2018-04-09T15:05:24.050Z,4.40
2018-04-09T15:07:52.308Z,4.17
2018-04-09T15:10:21.342Z,4.30
2018-04-09T15:12:48.860Z,4.27
2018-04-09T15:15:17.891Z,3.27
2018-04-09T15:17:45.399Z,3.77
2018-04-09T15:20:14.859Z,3.13
2018-04-09T15:22:42.400Z,3.40
2018-04-09T15:25:10.682Z,3.03
2018-04-09T15:27:38.192Z,4.40
2018-04-09T15:30:05.715Z,3.37
2018-04-09T15:32:33.247Z,4.03
2018-04-09T15:35:00.760Z,4.00
2018-04-09T15:37:28.281Z,3.47
2018-04-09T15:39:55.789Z,3.43
2018-04-09T15:42:23.314Z,4.03
2018-04-09T15:44:50.814Z,3.20
2018-04-09T15:47:19.111Z,4.10
2018-04-09T15:49:46.611Z,3.73
2018-04-09T15:52:15.057Z,3.53
2018-04-09T15:54:42.612Z,3.50
2018-04-09T15:57:10.856Z,3.20
2018-04-09T15:59:38.382Z,3.30
2018-04-09T16:02:05.878Z,3.90
2018-04-09T16:04:33.403Z,3.20
2018-04-09T16:07:00.907Z,3.63
2018-04-09T16:09:28.447Z,3.60
2018-04-09T16:11:56.719Z,3.50
2018-04-09T16:14:24.988Z,3.43
2018-04-09T16:16:53.280Z,3.20
2018-04-09T16:19:21.540Z,3.60
2018-04-09T16:21:49.066Z,3.77
2018-04-09T16:24:16.567Z,3.57
2018-04-09T16:26:44.847Z,3.60
2018-04-09T16:29:13.115Z,3.10
2018-04-09T16:31:41.394Z,3.13
2018-04-09T16:34:09.670Z,3.80
2018-04-09T16:36:38.903Z,4.10
2018-04-09T16:39:06.410Z,3.07
2018-04-09T16:41:33.926Z,3.17
2018-04-09T16:44:01.452Z,3.03
2018-04-09T16:46:28.994Z,3.27
2018-04-09T16:48:58.248Z,3.33
2018-04-09T16:51:25.776Z,3.50
2018-04-09T16:53:53.306Z,3.97
2018-04-09T16:56:21.577Z,3.07
2018-04-09T16:58:49.967Z,3.43
2018-04-09T17:01:18.231Z,3.07
2018-04-09T17:03:46.502Z,3.17
2018-04-09T17:06:14.797Z,3.17
2018-04-09T17:08:42.308Z,3.80
2018-04-09T17:11:09.835Z,3.33
2018-04-09T17:13:37.336Z,3.67
2018-04-09T17:16:04.851Z,3.90
2018-04-09T17:18:32.364Z,3.20
2018-04-09T17:21:01.627Z,2.93
2018-04-09T17:23:29.131Z,2.90
2018-04-09T17:25:57.399Z,3.47
2018-04-09T17:28:26.688Z,3.27
2018-04-09T17:30:54.190Z,3.70
2018-04-09T17:33:21.710Z,3.40
2018-04-09T17:35:49.981Z,2.70
2018-04-09T17:38:18.263Z,2.90
2018-04-09T17:40:46.522Z,2.97
2018-04-09T17:43:14.040Z,2.97
2018-04-09T17:45:41.572Z,2.93
2018-04-09T17:48:10.048Z,2.87
2018-04-09T17:50:37.611Z,3.07
2018-04-09T17:53:05.114Z,3.20
2018-04-09T17:55:32.647Z,3.90
2018-04-09T17:58:00.143Z,3.47
2018-04-09T18:00:27.667Z,2.90
2018-04-09T18:02:55.178Z,3.50
2018-04-09T18:05:23.484Z,3.60
2018-04-09T18:07:50.995Z,3.50
2018-04-09T18:10:18.490Z,2.47
2018-04-09T18:12:47.982Z,3.10
2018-04-09T18:15:15.494Z,3.27
2018-04-09T18:17:43.004Z,3.40
2018-04-09T18:20:10.511Z,3.47
2018-04-09T18:22:38.799Z,3.20
2018-04-09T18:25:06.315Z,3.10
2018-04-09T18:27:33.835Z,3.13
2018-04-09T18:30:02.103Z,3.50
2018-04-09T18:32:30.372Z,3.47
2018-04-09T18:34:58.663Z,3.40
2018-04-09T18:37:26.936Z,2.90
2018-04-09T18:39:55.236Z,4.17
2018-04-09T18:42:22.747Z,3.50
2018-04-09T18:44:50.275Z,3.53
2018-04-09T18:47:17.774Z,3.40
2018-04-09T18:49:46.059Z,2.60
2018-04-09T18:52:14.557Z,2.90
2018-04-09T18:54:42.066Z,2.60
2018-04-09T18:57:10.355Z,2.83
2018-04-09T18:59:38.623Z,3.63
2018-04-09T19:02:06.180Z,2.87
2018-04-09T19:04:33.668Z,3.00
2018-04-09T19:07:01.199Z,2.80
2018-04-09T19:09:29.487Z,3.07
2018-04-09T19:11:57.774Z,3.63
2018-04-09T19:14:25.283Z,2.50
2018-04-09T19:16:52.807Z,3.20
2018-04-09T19:19:20.361Z,3.50
2018-04-09T19:21:47.863Z,3.23
2018-04-09T19:24:16.904Z,3.00
2018-04-09T19:26:44.414Z,3.73
2018-04-09T19:29:13.467Z,2.80
2018-04-09T19:31:41.931Z,3.30
2018-04-09T19:34:09.459Z,2.60
2018-04-09T19:36:42.768Z,3.23
2018-04-09T19:39:16.760Z,3.47
2018-04-09T19:47:28.740Z,3.13
2018-04-09T19:49:56.269Z,3.20
2018-04-09T19:52:24.552Z,3.30
2018-04-09T19:54:52.535Z,3.30
2018-04-09T19:57:20.991Z,3.00
2018-04-09T19:59:48.884Z,3.30
2018-04-09T20:02:16.463Z,3.07
2018-04-09T20:04:44.203Z,2.93
2018-04-09T20:07:11.919Z,3.37
2018-04-09T20:09:40.556Z,3.03
2018-04-09T20:12:08.311Z,2.77
2018-04-09T20:14:36.183Z,2.70
2018-04-09T20:17:04.793Z,2.97
2018-04-09T20:19:33.441Z,2.87
2018-04-09T20:22:02.231Z,2.97
2018-04-09T20:24:30.096Z,3.50
2018-04-09T20:26:58.063Z,2.83
2018-04-09T20:29:25.931Z,2.47
2018-04-09T20:31:53.466Z,2.90
2018-04-09T20:34:23.012Z,3.33
2018-04-09T20:36:50.531Z,3.67
2018-04-09T20:39:18.035Z,2.60
2018-04-09T20:41:45.565Z,3.60
2018-04-09T20:44:14.007Z,2.90
2018-04-09T20:46:42.292Z,3.00
2018-04-09T20:49:10.783Z,2.63
2018-04-09T20:51:38.301Z,2.37
2018-04-09T20:54:05.822Z,3.03
2018-04-09T20:56:33.326Z,2.87
2018-04-09T20:59:01.606Z,2.80
2018-04-09T21:01:30.131Z,3.10
2018-04-09T21:03:58.091Z,3.00
2018-04-09T21:06:25.954Z,2.83
2018-04-09T21:08:53.497Z,3.40
2018-04-09T21:11:21.021Z,3.10
2018-04-09T21:13:48.515Z,2.77
2018-04-09T21:16:16.063Z,2.60
2018-04-09T21:18:43.563Z,3.20
2018-04-09T21:21:12.032Z,2.70
2018-04-09T21:23:39.543Z,3.27
2018-04-09T21:26:07.833Z,2.63
2018-04-09T21:28:35.358Z,2.90
2018-04-09T21:31:02.872Z,2.83
2018-04-09T21:33:32.370Z,2.93
2018-04-09T21:35:59.875Z,2.70
2018-04-09T21:38:30.850Z,2.30
2018-04-09T21:40:58.362Z,2.90
2018-04-09T21:43:25.885Z,2.67
2018-04-09T21:45:53.406Z,2.50
2018-04-09T21:48:22.637Z,2.90
2018-04-09T21:50:50.233Z,2.80
2018-04-09T21:53:18.688Z,3.13
2018-04-09T21:55:47.359Z,2.50
2018-04-09T21:58:15.144Z,2.60
2018-04-09T22:00:44.461Z,2.57
2018-04-09T22:03:13.259Z,2.70
2018-04-09T22:05:41.790Z,3.07
2018-04-09T22:08:10.278Z,2.53
2018-04-09T22:10:37.931Z,2.70
2018-04-09T22:13:05.798Z,2.80
2018-04-09T22:15:33.658Z,2.30
2018-04-09T22:18:01.730Z,2.80
2018-04-09T22:20:29.539Z,2.50
2018-04-09T22:22:58.280Z,2.80
2018-04-09T22:25:26.247Z,3.07
2018-04-09T22:27:54.886Z,2.67
2018-04-09T22:30:23.615Z,2.60
2018-04-09T22:32:52.519Z,2.90
2018-04-09T22:35:20.475Z,2.77
2018-04-09T22:37:48.341Z,2.70
2018-04-09T22:40:16.203Z,2.80
2018-04-09T22:42:45.809Z,3.27
2018-04-09T22:45:13.612Z,2.70
2018-04-09T22:47:43.119Z,3.00
2018-04-09T22:50:10.883Z,2.13
2018-04-09T22:52:39.524Z,3.50
2018-04-09T22:55:07.296Z,3.10
2018-04-09T22:57:35.657Z,2.50
2018-04-09T23:00:03.166Z,4.07
2018-04-09T23:02:33.799Z,3.40
2018-04-09T23:05:01.371Z,3.10
2018-04-09T23:07:30.043Z,3.30
2018-04-09T23:09:58.068Z,3.10
2018-04-09T23:12:25.635Z,2.93
2018-04-09T23:14:53.180Z,3.20
2018-04-09T23:17:20.707Z,3.30
2018-04-09T23:19:48.987Z,3.23
2018-04-09T23:22:29.021Z,4.10
2018-04-09T23:25:02.843Z,3.30
2018-04-09T23:27:30.643Z,3.23
2018-04-09T23:29:59.519Z,3.27
2018-04-09T23:32:27.171Z,3.20
2018-04-09T23:34:54.703Z,3.50
2018-04-09T23:37:22.993Z,3.43
2018-04-09T23:39:50.505Z,3.37
2018-04-09T23:42:18.035Z,3.30
2018-04-09T23:44:45.532Z,3.70
2018-04-09T23:47:14.579Z,3.30
2018-04-09T23:49:43.039Z,3.00
2018-04-09T23:52:12.559Z,3.43
2018-04-09T23:54:40.062Z,3.20
2018-04-09T23:57:08.334Z,2.93
2018-04-09T23:59:37.371Z,3.30
